createdAt,value
2023-05-05T01:05:27.108Z,12.90
2023-05-05T01:08:09.121Z,8.00
2023-05-05T01:10:42.256Z,7.60
2023-05-05T01:13:39.801Z,7.50
2023-05-05T01:16:24.399Z,9.10
2023-05-05T01:18:57.682Z,8.50
2023-05-05T01:21:35.372Z,8.20
2023-05-05T01:24:22.392Z,7.00
2023-05-05T01:27:13.715Z,11.50
2023-05-05T01:29:40.352Z,8.20
2023-05-05T01:32:12.429Z,12.60
2023-05-05T01:34:44.549Z,9.40
2023-05-05T01:37:17.549Z,7.60
2023-05-05T01:39:50.072Z,8.90
2023-05-05T01:42:17.956Z,9.60
2023-05-05T01:44:46.889Z,9.90
2023-05-05T01:47:17.743Z,8.70
2023-05-05T01:49:46.691Z,11.10
2023-05-05T01:52:15.454Z,9.30
2023-05-05T01:54:43.699Z,11.60
2023-05-05T01:57:12.162Z,12.50
2023-05-05T01:59:39.113Z,20.00
2023-05-05T02:02:08.449Z,13.30
2023-05-05T02:04:40.383Z,10.70
2023-05-05T02:07:08.156Z,11.40
2023-05-05T02:09:36.635Z,11.20
2023-05-05T02:12:03.987Z,10.70
2023-05-05T02:14:32.182Z,11.20
2023-05-05T02:16:59.034Z,11.40
2023-05-05T02:19:31.421Z,13.10
2023-05-05T02:24:25.725Z,7.90
2023-05-05T02:26:56.299Z,13.00
2023-05-05T02:29:43.613Z,15.30
2023-05-05T02:32:16.297Z,13.60
2023-05-05T02:34:46.417Z,13.30
2023-05-05T02:37:20.648Z,13.10
2023-05-05T02:39:58.094Z,15.20
2023-05-05T02:42:29.308Z,12.40
2023-05-05T02:45:01.301Z,13.10
2023-05-05T02:47:35.192Z,14.10
2023-05-05T02:50:03.095Z,16.30
2023-05-05T02:52:29.817Z,12.30
2023-05-05T02:54:56.148Z,12.70
2023-05-05T02:57:30.830Z,16.70
2023-05-05T03:00:07.387Z,16.20
2023-05-05T03:02:44.425Z,12.10
2023-05-05T03:05:18.398Z,14.00
2023-05-05T03:08:01.417Z,11.70
2023-05-05T03:10:39.334Z,13.10
2023-05-05T03:13:10.086Z,13.10
2023-05-05T03:15:45.449Z,12.80
2023-05-05T03:18:14.931Z,12.00
2023-05-05T03:20:43.214Z,15.60
2023-05-05T03:23:14.269Z,11.40
2023-05-05T03:25:46.102Z,10.70
2023-05-05T03:28:18.287Z,17.30
2023-05-05T03:30:45.031Z,12.90
2023-05-05T03:33:11.915Z,17.50
2023-05-05T03:35:39.055Z,13.00
2023-05-05T03:38:06.512Z,13.80
2023-05-05T03:40:43.596Z,17.50
2023-05-05T03:43:11.654Z,11.80
2023-05-05T03:45:38.105Z,12.50
2023-05-05T03:48:05.362Z,13.80
2023-05-05T03:50:31.735Z,12.00
2023-05-05T03:52:58.062Z,19.90
2023-05-05T03:55:25.185Z,11.50
2023-05-05T03:57:51.521Z,14.80
2023-05-05T04:00:18.312Z,8.20
2023-05-05T04:02:44.829Z,8.10
2023-05-05T04:05:11.655Z,11.50
2023-05-05T04:07:38.042Z,12.50
2023-05-05T04:10:06.179Z,11.40
2023-05-05T04:12:32.942Z,12.40
2023-05-05T04:14:59.444Z,12.40
2023-05-05T04:17:25.902Z,15.70
2023-05-05T04:19:52.778Z,11.70
2023-05-05T04:22:19.147Z,12.90
2023-05-05T04:24:46.536Z,10.40
2023-05-05T04:27:13.402Z,13.10
2023-05-05T04:29:39.963Z,14.80
2023-05-05T04:32:07.005Z,13.70
2023-05-05T04:34:33.378Z,12.80
2023-05-05T04:36:59.998Z,14.70
2023-05-05T04:39:28.149Z,20.70
2023-05-05T04:41:54.521Z,13.60
2023-05-05T04:44:20.848Z,13.60
2023-05-05T04:46:47.400Z,12.40
2023-05-05T04:49:15.361Z,12.90
2023-05-05T04:51:42.166Z,11.10
2023-05-05T04:54:09.299Z,13.30
2023-05-05T04:56:36.402Z,18.10
2023-05-05T04:59:02.883Z,11.40
2023-05-05T05:01:29.836Z,10.80
2023-05-05T05:03:56.420Z,11.50
2023-05-05T05:06:22.905Z,15.20
2023-05-05T05:08:49.573Z,15.10
2023-05-05T05:11:15.908Z,15.30
2023-05-05T05:13:42.279Z,10.20
2023-05-05T05:16:08.684Z,13.90
2023-05-05T05:18:35.254Z,12.60
2023-05-05T05:21:02.793Z,14.40
2023-05-05T05:23:29.149Z,12.70
2023-05-05T05:25:56.541Z,13.50
2023-05-05T05:28:23.021Z,12.40
2023-05-05T05:30:51.969Z,11.80
2023-05-05T05:33:19.099Z,12.50
2023-05-05T05:35:45.844Z,14.00
2023-05-05T05:38:12.680Z,10.50
2023-05-05T05:40:39.009Z,11.80
2023-05-05T05:43:05.760Z,10.80
2023-05-05T05:45:32.485Z,15.80
2023-05-05T05:47:58.957Z,15.00
2023-05-05T05:50:27.757Z,16.50
2023-05-05T05:52:54.780Z,11.10
2023-05-05T05:55:21.558Z,11.40
2023-05-05T05:57:47.924Z,10.60
2023-05-05T06:00:17.874Z,10.50
2023-05-05T06:02:45.615Z,9.50
2023-05-05T06:05:14.127Z,7.50
2023-05-05T06:07:41.245Z,9.80
2023-05-05T06:10:25.645Z,7.30
2023-05-05T06:12:54.427Z,13.50
2023-05-05T06:15:21.080Z,9.10
2023-05-05T06:17:47.901Z,7.80
2023-05-05T06:20:14.360Z,10.30
2023-05-05T06:22:40.733Z,7.80
2023-05-05T06:25:07.476Z,12.30
2023-05-05T06:27:34.108Z,6.20
2023-05-05T06:30:00.482Z,7.70
2023-05-05T06:32:26.807Z,6.10
2023-05-05T06:34:53.040Z,5.90
2023-05-05T06:37:19.445Z,8.50
2023-05-05T06:39:45.808Z,9.50
2023-05-05T06:42:12.098Z,7.60
2023-05-05T06:44:38.519Z,7.00
2023-05-05T06:47:05.040Z,5.70
2023-05-05T06:49:31.378Z,7.20
2023-05-05T06:51:57.842Z,7.40
2023-05-05T06:54:24.124Z,7.70
2023-05-05T06:56:50.655Z,6.90
2023-05-05T06:59:17.721Z,8.80
2023-05-05T07:01:44.078Z,6.90
2023-05-05T07:04:10.610Z,6.80
2023-05-05T07:06:36.931Z,5.90
2023-05-05T07:09:03.673Z,7.60
2023-05-05T07:11:30.032Z,5.50
2023-05-05T07:13:56.327Z,6.70
2023-05-05T07:16:24.171Z,6.20
2023-05-05T07:18:50.442Z,5.60
2023-05-05T07:21:16.757Z,7.60
2023-05-05T07:23:45.476Z,8.40
2023-05-05T07:26:11.809Z,9.10
2023-05-05T07:28:38.062Z,4.60
2023-05-05T07:31:04.467Z,5.80
2023-05-05T07:33:30.888Z,7.40
2023-05-05T07:35:57.230Z,5.10
2023-05-05T07:38:24.917Z,6.20
2023-05-05T07:40:51.187Z,6.70
2023-05-05T07:43:17.520Z,7.10
2023-05-05T07:45:43.819Z,6.90
2023-05-05T07:48:10.300Z,12.60
2023-05-05T07:50:36.705Z,6.10
2023-05-05T07:53:13.554Z,10.90
2023-05-05T07:55:40.722Z,9.10
2023-05-05T07:58:07.704Z,7.50
2023-05-05T08:00:34.027Z,4.00
2023-05-05T08:03:00.425Z,9.00
2023-05-05T08:05:26.864Z,5.00
2023-05-05T08:07:53.287Z,4.80
2023-05-05T08:10:21.213Z,5.80
2023-05-05T08:12:47.906Z,6.70
2023-05-05T08:15:14.202Z,7.50
2023-05-05T08:17:52.589Z,6.60
2023-05-05T08:20:20.082Z,4.60
2023-05-05T08:22:47.295Z,4.90
2023-05-05T08:25:13.924Z,5.60
2023-05-05T08:27:42.144Z,4.70
2023-05-05T08:30:09.225Z,8.00
2023-05-05T08:32:35.634Z,7.00
2023-05-05T08:35:02.802Z,10.90
2023-05-05T08:37:29.146Z,6.30
2023-05-05T08:39:57.101Z,4.80
2023-05-05T08:42:36.084Z,4.10
2023-05-05T08:45:03.389Z,4.70
2023-05-05T08:47:31.369Z,6.30
2023-05-05T08:49:59.033Z,9.90
2023-05-05T08:52:31.839Z,6.80
2023-05-05T08:55:05.256Z,5.70
2023-05-05T08:57:45.773Z,3.20
2023-05-05T09:00:12.605Z,3.80
2023-05-05T09:02:42.133Z,4.70
2023-05-05T09:05:09.163Z,8.60
2023-05-05T09:07:36.045Z,3.30
2023-05-05T09:10:03.898Z,5.50
2023-05-05T09:12:31.096Z,3.10
2023-05-05T09:14:59.058Z,5.30
2023-05-05T09:17:26.460Z,4.40
2023-05-05T09:20:02.109Z,7.30
2023-05-05T09:22:38.509Z,7.40
2023-05-05T09:25:06.977Z,5.20
2023-05-05T09:27:40.062Z,3.60
2023-05-05T09:30:07.648Z,3.80
2023-05-05T09:32:48.121Z,4.50
2023-05-05T09:35:15.680Z,3.90
2023-05-05T09:37:42.379Z,4.10
2023-05-05T09:40:10.539Z,3.50
2023-05-05T09:42:38.054Z,6.60
2023-05-05T09:45:24.468Z,6.80
2023-05-05T09:47:52.010Z,4.90
2023-05-05T09:50:21.536Z,3.60
2023-05-05T09:52:55.353Z,7.00
2023-05-05T09:55:23.304Z,7.30
2023-05-05T09:57:49.742Z,4.40
2023-05-05T10:00:16.279Z,8.70
2023-05-05T10:02:42.680Z,3.50
2023-05-05T10:05:11.997Z,4.10
2023-05-05T10:07:40.323Z,4.40
2023-05-05T10:10:14.702Z,3.10
2023-05-05T10:12:41.538Z,2.40
2023-05-05T10:15:13.016Z,5.40
2023-05-05T10:20:32.658Z,3.20
2023-05-05T10:23:03.853Z,2.90
2023-05-05T10:25:38.129Z,4.70
2023-05-05T10:28:06.034Z,4.90
2023-05-05T10:30:40.405Z,3.80
2023-05-05T10:33:54.711Z,2.70
2023-05-05T10:36:21.946Z,2.70
2023-05-05T10:38:53.588Z,6.60
2023-05-05T10:41:20.494Z,8.70
2023-05-05T10:43:47.624Z,2.50
2023-05-05T10:46:13.955Z,2.90
2023-05-05T10:48:48.587Z,2.30
2023-05-05T10:51:41.303Z,3.90
2023-05-05T10:56:49.151Z,8.70
2023-05-05T10:59:37.484Z,3.80
2023-05-05T11:02:24.169Z,3.50
2023-05-05T11:05:08.837Z,4.40
2023-05-05T11:07:36.321Z,4.40
2023-05-05T11:10:11.089Z,3.20
2023-05-05T11:13:01.197Z,6.90
2023-05-05T11:15:27.830Z,4.80
2023-05-05T11:17:55.999Z,3.60
2023-05-05T11:20:35.044Z,2.10
2023-05-05T11:23:01.306Z,3.50
2023-05-05T11:25:36.910Z,4.60
2023-05-05T11:28:11.172Z,3.00
2023-05-05T11:30:58.810Z,4.60
2023-05-05T11:33:29.882Z,5.10
2023-05-05T11:36:09.944Z,2.80
2023-05-05T11:38:54.892Z,3.60
2023-05-05T11:41:33.186Z,2.80
2023-05-05T11:44:19.855Z,4.20
2023-05-05T11:46:51.905Z,3.60
2023-05-05T11:49:35.277Z,5.00
2023-05-05T11:52:07.650Z,5.60
2023-05-05T11:54:35.801Z,3.10
2023-05-05T11:57:07.708Z,2.20
2023-05-05T11:59:36.617Z,6.00
2023-05-05T12:02:03.790Z,4.80
2023-05-05T12:04:30.930Z,5.30
2023-05-05T12:06:58.538Z,2.40
2023-05-05T12:09:25.112Z,4.30
2023-05-05T12:11:57.804Z,7.50
2023-05-05T12:14:25.002Z,3.70
2023-05-05T12:17:00.639Z,4.70
2023-05-05T12:19:32.572Z,5.90
2023-05-05T12:22:03.576Z,5.60
2023-05-05T12:24:30.382Z,6.00
2023-05-05T12:27:10.670Z,7.20
2023-05-05T12:29:37.057Z,2.40
2023-05-05T12:32:03.865Z,6.40
2023-05-05T12:34:31.043Z,4.00
2023-05-05T12:36:57.610Z,8.60
2023-05-05T12:39:34.167Z,5.60
2023-05-05T12:42:04.269Z,6.20
2023-05-05T12:44:35.456Z,1.90
2023-05-05T12:47:01.901Z,6.60
2023-05-05T12:49:28.264Z,8.50
2023-05-05T12:51:56.241Z,5.70
2023-05-05T12:54:24.334Z,3.30
2023-05-05T12:56:50.608Z,10.60
2023-05-05T12:59:20.094Z,5.00
2023-05-05T13:01:52.073Z,4.10
2023-05-05T13:04:19.479Z,3.60
2023-05-05T13:06:48.720Z,4.60
2023-05-05T13:09:35.606Z,3.40
2023-05-05T13:12:03.199Z,5.60
2023-05-05T13:14:31.172Z,4.00
2023-05-05T13:16:57.547Z,4.50
2023-05-05T13:19:24.347Z,9.40
2023-05-05T13:21:51.986Z,5.60
2023-05-05T13:24:28.530Z,6.30
2023-05-05T13:27:02.284Z,2.40
2023-05-05T13:29:31.613Z,6.90
2023-05-05T13:31:58.673Z,5.00
2023-05-05T13:34:25.031Z,7.10
2023-05-05T13:36:51.331Z,4.10
2023-05-05T13:39:17.770Z,4.00
2023-05-05T13:41:44.635Z,2.90
2023-05-05T13:44:11.678Z,3.10
2023-05-05T13:46:37.993Z,7.00
2023-05-05T13:49:04.367Z,6.00
2023-05-05T13:51:30.674Z,3.00
2023-05-05T13:53:56.972Z,3.60
2023-05-05T13:56:25.455Z,4.40
2023-05-05T13:58:51.703Z,4.40
2023-05-05T14:01:18.049Z,2.70
2023-05-05T14:03:44.451Z,6.90
2023-05-05T14:06:10.860Z,4.30
2023-05-05T14:08:37.258Z,2.10
2023-05-05T14:11:04.033Z,2.60
2023-05-05T14:13:30.636Z,10.40
2023-05-05T14:15:57.678Z,4.50
2023-05-05T14:18:24.906Z,7.40
2023-05-05T14:20:51.182Z,3.50
2023-05-05T14:23:17.476Z,3.00
2023-05-05T14:25:43.829Z,8.60
2023-05-05T14:28:10.328Z,2.50
2023-05-05T14:30:36.594Z,7.10
2023-05-05T14:33:02.932Z,2.70
2023-05-05T14:35:30.363Z,7.10
2023-05-05T14:37:56.686Z,3.10
2023-05-05T14:40:22.946Z,4.20
2023-05-05T14:42:50.136Z,4.10
2023-05-05T14:45:16.566Z,6.10
2023-05-05T14:47:42.977Z,2.80
2023-05-05T14:50:09.799Z,3.40
2023-05-05T14:52:38.591Z,7.20
2023-05-05T14:55:06.097Z,4.00
2023-05-05T14:57:32.515Z,5.40
2023-05-05T15:00:01.080Z,3.90
2023-05-05T15:02:27.718Z,4.80
2023-05-05T15:04:54.241Z,2.10
2023-05-05T15:07:21.881Z,1.90
2023-05-05T15:09:48.202Z,5.40
2023-05-05T15:12:14.519Z,5.20
2023-05-05T15:14:41.512Z,3.70
2023-05-05T15:17:07.843Z,3.10
2023-05-05T15:19:34.253Z,4.00
2023-05-05T15:22:00.654Z,3.20
2023-05-05T15:24:27.031Z,2.70
2023-05-05T15:26:53.366Z,3.50
2023-05-05T15:29:19.719Z,2.80
2023-05-05T15:31:46.053Z,4.20
2023-05-05T15:34:12.377Z,4.40
2023-05-05T15:36:38.620Z,4.30
2023-05-05T15:39:04.946Z,3.70
2023-05-05T15:41:33.546Z,2.60
2023-05-05T15:44:01.350Z,4.10
2023-05-05T15:46:30.891Z,4.50
2023-05-05T15:48:57.225Z,3.50
2023-05-05T15:51:23.667Z,4.20
2023-05-05T15:53:51.595Z,2.80
2023-05-05T15:56:18.219Z,2.80
2023-05-05T15:58:44.638Z,4.90
2023-05-05T16:01:11.043Z,2.20
2023-05-05T16:03:37.358Z,3.10
2023-05-05T16:06:03.687Z,4.60
2023-05-05T16:08:29.941Z,3.30
2023-05-05T16:10:56.219Z,5.70
2023-05-05T16:13:22.552Z,3.20
2023-05-05T16:15:48.895Z,6.20
2023-05-05T16:18:15.271Z,8.30
2023-05-05T16:20:41.548Z,5.90
2023-05-05T16:23:08.002Z,3.70
2023-05-05T16:25:34.376Z,2.70
2023-05-05T16:28:01.049Z,6.20
2023-05-05T16:30:28.723Z,2.80
2023-05-05T16:32:55.080Z,3.80
2023-05-05T16:35:22.285Z,4.30
2023-05-05T16:37:48.575Z,4.70
2023-05-05T16:40:15.159Z,4.90
2023-05-05T16:42:43.689Z,2.70
2023-05-05T16:45:10.955Z,3.50
2023-05-05T16:47:37.412Z,2.70
2023-05-05T16:50:04.392Z,3.40
2023-05-05T16:52:30.664Z,2.80
2023-05-05T16:54:56.982Z,9.50
2023-05-05T16:57:23.727Z,5.60
2023-05-05T16:59:50.257Z,4.00
2023-05-05T17:02:16.568Z,5.30
2023-05-05T17:04:42.943Z,4.60
2023-05-05T17:07:09.213Z,3.80
2023-05-05T17:09:35.500Z,8.30
2023-05-05T17:12:03.596Z,4.70
2023-05-05T17:14:30.404Z,8.50
2023-05-05T17:16:56.636Z,5.80
2023-05-05T17:19:22.930Z,5.80
2023-05-05T17:21:49.233Z,7.40
2023-05-05T17:24:15.565Z,5.50
2023-05-05T17:26:41.934Z,8.00
2023-05-05T17:29:08.206Z,4.10
2023-05-05T17:31:34.574Z,4.30
2023-05-05T17:34:00.885Z,8.60
2023-05-05T17:36:27.165Z,4.60
2023-05-05T17:38:53.458Z,5.10
2023-05-05T17:41:19.734Z,3.30
2023-05-05T17:43:46.117Z,4.20
2023-05-05T17:46:12.482Z,6.10
2023-05-05T17:48:38.770Z,3.80
2023-05-05T17:51:05.100Z,5.40
2023-05-05T17:53:31.386Z,10.10
2023-05-05T17:55:57.758Z,5.90
2023-05-05T17:58:24.070Z,9.20
2023-05-05T18:00:50.623Z,7.40
2023-05-05T18:03:17.096Z,9.80
2023-05-05T18:05:43.537Z,6.10
2023-05-05T18:08:10.482Z,5.50
2023-05-05T18:10:36.857Z,14.40
2023-05-05T18:13:03.233Z,7.10
2023-05-05T18:15:29.608Z,5.90
2023-05-05T18:17:56.050Z,6.60
2023-05-05T18:20:22.437Z,7.50
2023-05-05T18:22:48.878Z,6.90
2023-05-05T18:25:15.401Z,9.20
2023-05-05T18:27:43.141Z,12.00
2023-05-05T18:30:10.086Z,12.80
2023-05-05T18:32:36.813Z,19.50
2023-05-05T18:35:03.481Z,14.90
2023-05-05T18:37:29.766Z,13.90
2023-05-05T18:39:56.262Z,11.00
2023-05-05T18:42:22.566Z,7.50
2023-05-05T18:44:48.881Z,6.40
2023-05-05T18:47:15.406Z,9.30
2023-05-05T18:49:41.726Z,8.10
2023-05-05T18:52:07.965Z,7.30
2023-05-05T18:54:36.215Z,9.60
2023-05-05T18:57:03.893Z,6.90
2023-05-05T18:59:30.208Z,9.70
2023-05-05T19:01:56.571Z,12.10
2023-05-05T19:04:30.076Z,11.30
2023-05-05T19:06:58.596Z,11.40
2023-05-05T19:09:24.909Z,10.70
2023-05-05T19:11:51.597Z,16.60
2023-05-05T19:14:17.919Z,12.60
2023-05-05T19:16:44.321Z,12.10
2023-05-05T19:19:10.663Z,9.50
2023-05-05T19:21:37.388Z,13.40
2023-05-05T19:24:03.894Z,12.60
2023-05-05T19:26:31.013Z,11.20
2023-05-05T19:28:57.388Z,15.30
2023-05-05T19:31:26.800Z,12.00
2023-05-05T19:34:00.989Z,12.90
2023-05-05T19:36:28.240Z,12.90
2023-05-05T19:38:55.087Z,13.60
2023-05-05T19:41:21.412Z,11.20
2023-05-05T19:43:49.108Z,8.90
2023-05-05T19:46:16.291Z,12.10
2023-05-05T19:48:42.893Z,12.80
2023-05-05T19:51:09.177Z,9.80
2023-05-05T19:53:35.747Z,11.70
2023-05-05T19:56:02.062Z,10.00
2023-05-05T19:58:28.310Z,19.30
2023-05-05T20:00:54.625Z,9.10
2023-05-05T20:03:21.089Z,15.10
2023-05-05T20:05:47.579Z,15.70
2023-05-05T20:08:13.859Z,12.00
2023-05-05T20:10:40.158Z,11.90
2023-05-05T20:13:06.607Z,12.50
2023-05-05T20:15:33.340Z,10.80
2023-05-05T20:17:59.944Z,12.60
2023-05-05T20:20:26.281Z,11.50
2023-05-05T20:22:52.663Z,12.70
2023-05-05T20:25:19.073Z,17.30
2023-05-05T20:27:45.574Z,18.30
2023-05-05T20:30:12.329Z,11.80
2023-05-05T20:32:38.722Z,12.30
2023-05-05T20:35:05.509Z,12.50
2023-05-05T20:37:31.895Z,11.10
2023-05-05T20:39:58.145Z,14.70
2023-05-05T20:42:25.580Z,25.70
2023-05-05T20:44:51.869Z,13.80
2023-05-05T20:47:18.135Z,11.20
2023-05-05T20:49:44.380Z,14.20
2023-05-05T20:52:10.693Z,14.00
2023-05-05T20:54:38.305Z,12.10
2023-05-05T20:57:06.684Z,15.20
2023-05-05T20:59:33.079Z,13.00
2023-05-05T21:01:59.413Z,13.20
2023-05-05T21:04:25.782Z,14.40
2023-05-05T21:06:52.100Z,15.40
2023-05-05T21:09:20.607Z,14.50
2023-05-05T21:11:47.882Z,17.20
2023-05-05T21:14:14.277Z,19.70
2023-05-05T21:16:41.007Z,18.70
2023-05-05T21:19:07.461Z,17.40
2023-05-05T21:21:33.869Z,18.10
2023-05-05T21:24:00.442Z,16.10
2023-05-05T21:26:26.752Z,14.20
2023-05-05T21:28:53.166Z,14.90
2023-05-05T21:31:22.188Z,12.20
2023-05-05T21:33:48.915Z,18.40
2023-05-05T21:36:16.813Z,14.00
2023-05-05T21:38:43.197Z,14.20
2023-05-05T21:41:09.515Z,15.30
2023-05-05T21:43:35.921Z,14.40
2023-05-05T21:46:04.435Z,18.00
2023-05-05T21:48:31.818Z,14.30
2023-05-05T21:50:58.131Z,17.40
2023-05-05T21:53:24.469Z,13.70
2023-05-05T21:55:50.919Z,14.60
2023-05-05T21:58:17.201Z,12.60
2023-05-05T22:00:44.271Z,17.50
2023-05-05T22:03:10.600Z,19.10
2023-05-05T22:05:36.935Z,12.50
2023-05-05T22:08:03.475Z,15.10
2023-05-05T22:10:29.759Z,13.80
2023-05-05T22:12:57.243Z,13.80
2023-05-05T22:15:27.637Z,15.90
2023-05-05T22:17:56.395Z,15.70
2023-05-05T22:20:22.832Z,12.70
2023-05-05T22:22:49.149Z,17.90
2023-05-05T22:25:15.533Z,16.60
2023-05-05T22:27:42.158Z,14.50
2023-05-05T22:30:08.906Z,12.70
2023-05-05T22:32:35.220Z,16.80
2023-05-05T22:35:01.672Z,13.10
2023-05-05T22:37:28.158Z,12.40
2023-05-05T22:39:54.409Z,11.10
2023-05-05T22:42:20.664Z,11.00
2023-05-05T22:44:47.001Z,12.00
2023-05-05T22:47:13.402Z,10.00
2023-05-05T22:49:39.757Z,12.60
2023-05-05T22:52:06.777Z,11.70
2023-05-05T22:54:33.057Z,13.00
2023-05-05T22:56:59.498Z,14.90
2023-05-05T22:59:25.775Z,12.80
2023-05-05T23:01:52.113Z,10.90
2023-05-05T23:04:18.648Z,10.20
2023-05-05T23:06:45.360Z,13.60
2023-05-05T23:09:12.014Z,9.00
2023-05-05T23:11:38.261Z,11.20
2023-05-05T23:14:04.615Z,12.60
2023-05-05T23:16:30.909Z,9.30
2023-05-05T23:18:57.223Z,13.80
2023-05-05T23:21:23.558Z,12.10
2023-05-05T23:23:49.839Z,10.50
2023-05-05T23:26:16.193Z,9.60
2023-05-05T23:28:42.533Z,8.30
2023-05-05T23:31:08.867Z,7.70
2023-05-05T23:33:35.192Z,11.20
2023-05-05T23:36:01.631Z,13.70
2023-05-05T23:38:27.929Z,7.80
2023-05-05T23:40:54.304Z,10.50
2023-05-05T23:43:20.592Z,8.30
2023-05-05T23:45:46.945Z,9.50
2023-05-05T23:48:13.238Z,8.00
2023-05-05T23:50:39.573Z,9.90
2023-05-05T23:53:05.936Z,8.20
2023-05-05T23:55:32.218Z,9.30
2023-05-05T23:57:58.508Z,7.40
